Time;durP1;ratioP1;P1;durP2;ratioP2;P2;SDS_P1;SDS_P2;PMS_P1;PMS_P2;Temp;Humidity;BMP_temperature;BMP_pressure;BME280_temperature;BME280_humidity;BME280_pressure;Samples;Min_cycle;Max_cycle;Signal;HPM_P1;HPM_P2
2022/04/30 00:00:45;;;;;;;2.13;0.85;;;;;;;7.77;44.18;101537.94;5103104;28;20035;-66
2022/04/30 00:03:10;;;;;;;5.75;0.80;;;;;;;7.67;44.40;101528.22;5102753;28;20028;-66
2022/04/30 00:05:36;;;;;;;1.92;1.08;;;;;;;7.65;44.36;101524.75;5103230;28;20103;-66
2022/04/30 00:08:03;;;;;;;2.25;0.90;;;;;;;7.60;44.60;101519.47;5102799;28;20103;-64
2022/04/30 00:10:29;;;;;;;3.78;0.90;;;;;;;7.58;44.56;101523.72;5102622;28;20401;-65
2022/04/30 00:12:55;;;;;;;1.67;0.88;;;;;;;7.54;44.66;101519.34;5102460;28;20238;-65
2022/04/30 00:15:20;;;;;;;4.75;0.98;;;;;;;7.44;44.68;101511.34;5102810;28;20074;-65
2022/04/30 00:17:46;;;;;;;1.20;0.95;;;;;;;7.43;44.87;101519.97;5102549;28;20024;-65
2022/04/30 00:20:12;;;;;;;3.25;1.30;;;;;;;7.37;44.94;101517.25;5102930;28;20476;-65
2022/04/30 00:22:38;;;;;;;1.48;0.80;;;;;;;7.31;45.05;101517.09;5101390;28;20529;-66
2022/04/30 00:25:03;;;;;;;2.90;0.90;;;;;;;7.24;45.35;101516.06;5103165;28;20035;-66
2022/04/30 00:27:31;;;;;;;2.08;0.93;;;;;;;7.20;45.14;101514.28;5105475;28;20098;-66
2022/04/30 00:29:58;;;;;;;2.67;1.02;;;;;;;7.16;45.29;101522.75;5106722;28;20020;-66
2022/04/30 00:32:23;;;;;;;2.50;1.00;;;;;;;7.13;45.43;101515.84;5106714;28;20066;-66
2022/04/30 00:34:49;;;;;;;3.67;1.73;;;;;;;7.09;45.33;101519.19;5106748;28;20024;-66
2022/04/30 00:37:14;;;;;;;1.38;0.73;;;;;;;7.05;45.40;101513.06;5106615;28;20024;-66
2022/04/30 00:39:39;;;;;;;1.60;1.00;;;;;;;6.98;45.70;101511.16;5105558;28;20012;-66
2022/04/30 00:42:05;;;;;;;4.95;1.27;;;;;;;6.99;45.55;101514.63;5106358;28;20024;-66
2022/04/30 00:44:30;;;;;;;3.35;1.10;;;;;;;6.96;45.73;101509.38;5106612;28;20031;-66
2022/04/30 00:46:56;;;;;;;6.13;1.05;;;;;;;6.94;45.81;101512.81;5106329;28;20027;-65
2022/04/30 00:49:21;;;;;;;1.67;1.00;;;;;;;6.94;45.99;101507.66;5106206;28;20024;-66
2022/04/30 00:51:49;;;;;;;1.50;1.08;;;;;;;6.93;45.93;101508.47;5106378;28;20031;-65
2022/04/30 00:54:20;;;;;;;3.08;1.10;;;;;;;6.94;45.91;101510.22;5106370;28;20024;-67
2022/04/30 00:56:55;;;;;;;3.55;1.08;;;;;;;6.96;46.14;101514.53;5105265;28;20066;-66
2022/04/30 00:59:23;;;;;;;2.25;1.33;;;;;;;6.97;45.94;101517.16;5106269;28;20024;-66
2022/04/30 01:01:49;;;;;;;1.83;0.90;;;;;;;6.97;46.26;101509.41;5106029;28;20027;-66
2022/04/30 01:04:15;;;;;;;2.42;1.00;;;;;;;7.00;46.22;101511.19;5105797;28;20027;-65
2022/04/30 01:06:51;;;;;;;2.65;0.80;;;;;;;7.00;46.31;101512.06;5106021;28;20047;-65
2022/04/30 01:09:20;;;;;;;2.25;0.88;;;;;;;6.98;46.25;101497.41;5105914;28;20478;-65
2022/04/30 01:11:48;;;;;;;1.13;0.70;;;;;;;7.00;46.40;101495.69;5105739;28;20124;-65
2022/04/30 01:14:14;;;;;;;2.55;1.08;;;;;;;7.05;46.21;101501.84;5105882;28;20071;-65
2022/04/30 01:16:41;;;;;;;2.17;1.00;;;;;;;7.01;46.36;101493.16;5105706;28;20522;-66
2022/04/30 01:19:09;;;;;;;4.50;1.00;;;;;;;6.96;46.54;101492.19;5105457;28;20342;-66
2022/04/30 01:21:36;;;;;;;2.65;1.08;;;;;;;6.92;46.53;101483.50;5105780;28;20077;-65
2022/04/30 01:24:03;;;;;;;1.50;0.93;;;;;;;6.88;46.66;101493.72;5105786;28;20024;-65
2022/04/30 01:26:29;;;;;;;1.98;0.90;;;;;;;6.82;46.72;101487.56;5105782;28;20024;-65
2022/04/30 01:28:54;;;;;;;2.53;0.80;;;;;;;6.79;46.71;101478.84;5105560;28;20057;-66
2022/04/30 01:39:31;;;;;;;1.88;1.02;;;;;;;6.75;46.76;101479.63;5105745;28;20054;-65
2022/04/30 01:42:04;;;;;;;2.13;1.05;;;;;;;6.71;46.87;101477.81;5105521;28;20020;-67
2022/04/30 01:44:29;;;;;;;1.52;1.00;;;;;;;6.72;46.96;101476.97;5105276;28;20067;-65
2022/04/30 01:46:56;;;;;;;4.45;2.03;;;;;;;6.72;46.83;101476.97;5105263;28;20028;-65
2022/04/30 01:49:22;;;;;;;1.27;0.80;;;;;;;6.67;46.97;101469.13;5103501;28;20036;-65
2022/04/30 01:51:49;;;;;;;2.00;1.17;;;;;;;6.71;46.91;101477.81;5105165;28;20020;-65
2022/04/30 01:54:14;;;;;;;2.58;0.90;;;;;;;6.65;46.90;101466.50;5105226;28;20028;-65
2022/04/30 01:56:40;;;;;;;1.35;0.98;;;;;;;6.69;46.91;101464.88;5105020;28;20107;-64
2022/04/30 01:59:05;;;;;;;3.08;0.82;;;;;;;6.64;47.15;101467.34;5105142;28;20027;-66
2022/04/30 02:01:32;;;;;;;3.30;0.90;;;;;;;6.68;47.10;101473.44;5104780;28;20032;-67
2022/04/30 02:03:58;;;;;;;1.63;0.82;;;;;;;6.67;47.22;101477.75;5104718;28;20109;-65
2022/04/30 02:06:23;;;;;;;1.98;1.10;;;;;;;6.68;47.20;101471.72;5104708;28;20020;-65
2022/04/30 02:08:49;;;;;;;4.57;1.05;;;;;;;6.72;47.33;101476.97;5104612;28;20027;-65
2022/04/30 02:11:14;;;;;;;1.50;0.88;;;;;;;6.74;47.23;101480.47;5104784;28;20027;-65
2022/04/30 02:13:40;;;;;;;1.52;0.80;;;;;;;6.74;47.25;101480.47;5104601;28;20020;-65
2022/04/30 02:16:07;;;;;;;1.65;0.90;;;;;;;6.78;47.34;101480.59;5104702;28;20046;-65
2022/04/30 02:18:35;;;;;;;2.95;1.30;;;;;;;6.79;47.42;101479.72;5104143;28;20026;-65
2022/04/30 02:21:00;;;;;;;1.98;1.20;;;;;;;6.81;47.36;101480.66;5104572;28;20024;-65
2022/04/30 02:23:25;;;;;;;2.80;0.93;;;;;;;6.79;47.38;101476.28;5104424;28;20425;-66
2022/04/30 02:25:51;;;;;;;2.17;1.00;;;;;;;6.81;47.48;101478.06;5103466;28;20556;-66
2022/04/30 02:28:17;;;;;;;4.70;1.20;;;;;;;6.78;47.49;101472.84;5104299;28;20039;-66
2022/04/30 02:30:43;;;;;;;1.73;1.20;;;;;;;6.79;47.60;101478.84;5104548;28;20027;-66
2022/04/30 02:33:11;;;;;;;2.85;1.50;;;;;;;6.79;47.53;101476.28;5102845;28;20023;-67
2022/04/30 02:35:39;;;;;;;2.67;1.05;;;;;;;6.77;47.55;101473.66;5104261;28;20529;-67
2022/04/30 02:38:08;;;;;;;3.08;1.08;;;;;;;6.75;47.72;101466.72;5104315;28;20092;-66
2022/04/30 02:40:34;;;;;;;1.38;0.98;;;;;;;6.74;47.51;101470.16;5104236;28;20016;-65
2022/04/30 02:43:15;;;;;;;2.85;1.15;;;;;;;6.71;47.55;101478.66;5104297;28;20035;-65
2022/04/30 02:45:42;;;;;;;3.42;1.00;;;;;;;6.66;47.60;101477.69;5104264;28;20020;-66
2022/04/30 02:48:09;;;;;;;3.83;1.27;;;;;;;6.59;47.86;101479.25;5103456;28;20067;-65
2022/04/30 02:50:36;;;;;;;3.53;1.00;;;;;;;6.57;47.96;101478.31;5103186;28;20103;-66
2022/04/30 02:53:02;;;;;;;1.90;1.30;;;;;;;6.56;48.00;101474.88;5103809;28;20031;-66
2022/04/30 02:55:27;;;;;;;3.38;1.00;;;;;;;6.53;47.92;101471.34;5103734;28;20024;-66
2022/04/30 03:00:40;;;;;;;4.22;1.20;;;;;;;6.49;48.05;101465.22;5104021;28;20511;-65
2022/04/30 03:03:10;;;;;;;2.97;0.80;;;;;;;6.45;48.20;101463.41;5103505;28;20028;-65
2022/04/30 03:05:37;;;;;;;1.88;1.10;;;;;;;6.41;48.30;101466.72;5103685;28;20514;-65
2022/04/30 03:08:13;;;;;;;2.70;1.13;;;;;;;6.42;48.44;101458.19;5103551;28;20038;-65
2022/04/30 03:10:47;;;;;;;4.32;1.20;;;;;;;6.36;48.48;101460.59;5103838;28;20050;-66
2022/04/30 03:13:14;;;;;;;2.38;1.10;;;;;;;6.32;48.43;101452.78;5103445;28;20049;-65
2022/04/30 03:15:43;;;;;;;1.23;0.93;;;;;;;6.29;48.51;101451.81;5103680;28;20031;-66
2022/04/30 03:23:36;;;;;;;1.20;0.90;;;;;;;6.15;48.69;101454.91;5103315;28;20361;-66
2022/04/30 03:26:04;;;;;;;2.40;1.05;;;;;;;6.10;48.62;101459.06;5102776;28;20026;-66
2022/04/30 03:28:29;;;;;;;3.10;1.10;;;;;;;6.08;48.88;101460.72;5102225;28;20012;-66
2022/04/30 03:30:54;;;;;;;3.30;1.40;;;;;;;6.03;49.08;101459.69;5102652;28;20066;-66
2022/04/30 03:33:19;;;;;;;2.78;1.00;;;;;;;5.99;49.10;101452.72;5102277;28;20027;-66
2022/04/30 03:35:45;;;;;;;2.13;1.25;;;;;;;5.94;49.02;101450.88;5102187;28;20060;-66
2022/04/30 03:38:10;;;;;;;3.45;1.05;;;;;;;5.93;49.01;101454.28;5102533;28;20487;-66
2022/04/30 03:40:38;;;;;;;5.97;1.20;;;;;;;5.94;49.06;101450.00;5103052;28;20029;-66
2022/04/30 03:43:05;;;;;;;2.22;1.00;;;;;;;5.90;49.06;101450.75;5101507;28;20024;-65
2022/04/30 03:45:31;;;;;;;1.38;1.10;;;;;;;5.88;49.06;101453.28;5102928;28;20016;-65
2022/04/30 03:47:57;;;;;;;2.17;1.10;;;;;;;5.89;49.05;101462.78;5102723;28;20105;-66
2022/04/30 03:50:22;;;;;;;3.25;1.00;;;;;;;5.90;49.12;101464.50;5103428;28;20045;-65
2022/04/30 03:52:47;;;;;;;3.13;0.98;;;;;;;5.92;48.93;101457.69;5102876;28;20494;-66
2022/04/30 03:55:15;;;;;;;1.83;1.00;;;;;;;5.92;48.90;101451.66;5102875;28;20027;-67
2022/04/30 03:57:41;;;;;;;2.15;1.10;;;;;;;5.95;48.92;101450.06;5102921;28;20024;-66
2022/04/30 04:00:09;;;;;;;2.97;1.00;;;;;;;5.91;48.87;101445.63;5102676;28;20046;-66
2022/04/30 04:02:39;;;;;;;1.40;1.10;;;;;;;5.94;48.66;101450.88;5102862;28;20020;-66
2022/04/30 04:05:06;;;;;;;1.85;0.93;;;;;;;5.94;48.59;101450.88;5102057;28;20020;-66
2022/04/30 04:07:32;;;;;;;3.60;1.08;;;;;;;5.94;48.73;101448.28;5102945;28;20077;-67
2022/04/30 04:09:57;;;;;;;1.00;0.90;;;;;;;5.95;48.75;101454.31;5103053;28;20028;-67
2022/04/30 04:12:23;;;;;;;1.17;0.77;;;;;;;5.95;48.47;101452.63;5102803;28;20388;-67
2022/04/30 04:17:38;;;;;;;1.98;0.90;;;;;;;5.92;48.56;101461.97;5102861;28;20088;-67
2022/04/30 04:20:11;;;;;;;2.17;0.93;;;;;;;5.86;48.50;101446.34;5102785;28;20467;-67
2022/04/30 04:22:37;;;;;;;2.65;0.93;;;;;;;5.93;48.62;101462.03;5102840;28;20036;-67
2022/04/30 04:27:53;;;;;;;2.38;1.13;;;;;;;6.03;48.30;101462.28;5102898;28;20100;-66
2022/04/30 04:30:19;;;;;;;5.47;1.10;;;;;;;6.07;48.46;101462.44;5102807;28;20016;-66
2022/04/30 04:32:44;;;;;;;2.38;1.15;;;;;;;6.16;48.42;101463.50;5101036;28;20035;-64
2022/04/30 04:35:10;;;;;;;2.50;0.98;;;;;;;6.23;48.39;101468.00;5101201;28;20016;-65
2022/04/30 04:37:35;;;;;;;1.58;0.90;;;;;;;6.31;48.28;101469.06;5102686;28;20047;-67
2022/04/30 04:40:00;;;;;;;2.63;1.23;;;;;;;6.34;48.03;101459.69;5102830;28;20048;-68
2022/04/30 04:42:26;;;;;;;3.72;1.58;;;;;;;6.35;48.05;101462.31;5102487;28;20388;-67
2022/04/30 04:44:51;;;;;;;1.10;0.80;;;;;;;6.40;48.05;101468.47;5102755;28;20092;-67
2022/04/30 04:47:16;;;;;;;4.30;1.00;;;;;;;6.40;48.03;101473.63;5102706;28;20086;-67
2022/04/30 04:49:42;;;;;;;1.52;0.93;;;;;;;6.36;48.09;101466.63;5102302;28;20480;-66
2022/04/30 04:52:10;;;;;;;1.15;0.82;;;;;;;6.71;48.61;101457.16;5102733;28;20039;-66
2022/04/30 04:54:35;;;;;;;1.15;0.90;;;;;;;7.52;48.56;101459.00;5102506;28;20024;-66
2022/04/30 04:57:00;;;;;;;1.15;0.70;;;;;;;8.30;47.77;101455.31;5102498;28;20038;-66
2022/04/30 04:59:26;;;;;;;2.35;0.98;;;;;;;9.07;46.09;101454.00;5102503;28;20024;-66
2022/04/30 05:01:52;;;;;;;1.15;0.80;;;;;;;9.72;45.18;101454.88;5102491;28;20047;-67
2022/04/30 05:04:18;;;;;;;1.88;0.80;;;;;;;10.26;44.28;101457.16;5102330;28;20043;-66
2022/04/30 05:06:44;;;;;;;5.05;0.93;;;;;;;10.96;43.90;101458.66;5102755;28;20079;-65
2022/04/30 05:09:09;;;;;;;3.10;1.08;;;;;;;11.60;42.83;101454.66;5102666;28;20103;-64
2022/04/30 05:11:35;;;;;;;3.60;1.10;;;;;;;12.38;41.88;101454.88;5102568;28;20028;-65
2022/04/30 05:14:00;;;;;;;3.38;1.10;;;;;;;12.99;39.82;101439.22;5105658;28;20030;-65
2022/04/30 05:16:25;;;;;;;2.40;1.05;;;;;;;13.39;39.56;101442.59;5106403;28;20040;-65
2022/04/30 05:18:50;;;;;;;1.98;0.90;;;;;;;13.96;38.85;101444.09;5105581;28;20310;-65
2022/04/30 05:21:16;;;;;;;0.90;0.77;;;;;;;14.81;38.06;101452.19;5105953;28;20021;-65
2022/04/30 05:23:41;;;;;;;1.20;0.70;;;;;;;15.48;36.27;101450.59;5104578;28;20024;-64
2022/04/30 05:26:06;;;;;;;2.15;0.88;;;;;;;15.90;35.25;101447.47;5105991;28;20031;-64
2022/04/30 05:28:32;;;;;;;3.75;0.90;;;;;;;16.20;34.63;101444.44;5105431;28;20114;-64
2022/04/30 05:30:58;;;;;;;1.38;0.80;;;;;;;16.45;33.62;101449.28;5105656;28;20087;-64
2022/04/30 05:33:23;;;;;;;3.70;1.10;;;;;;;16.45;33.09;101442.28;5105422;28;20024;-64
2022/04/30 05:35:48;;;;;;;2.97;0.90;;;;;;;16.43;31.67;101448.44;5105943;28;20025;-64
2022/04/30 05:38:14;;;;;;;3.03;1.00;;;;;;;16.34;31.84;101449.47;5105479;28;20035;-64
2022/04/30 05:40:39;;;;;;;4.07;1.10;;;;;;;16.48;31.85;101451.88;5105175;28;20058;-64
2022/04/30 05:43:05;;;;;;;2.58;0.90;;;;;;;16.58;32.11;101449.97;5105255;28;20020;-65
2022/04/30 05:45:30;;;;;;;1.80;0.93;;;;;;;16.85;31.85;101447.75;5105326;28;20012;-65
2022/04/30 05:47:55;;;;;;;3.55;0.95;;;;;;;17.06;31.84;101448.25;5104864;28;20052;-66
2022/04/30 05:50:21;;;;;;;2.65;0.70;;;;;;;17.46;31.14;101454.47;5105250;28;20016;-65
2022/04/30 05:52:46;;;;;;;3.20;1.65;;;;;;;17.59;30.85;101450.72;5105062;28;20117;-64
2022/04/30 05:55:12;;;;;;;1.40;0.90;;;;;;;18.03;30.57;101455.03;5105067;28;20761;-63
2022/04/30 05:57:37;;;;;;;1.55;0.70;;;;;;;18.69;29.92;101461.38;5104972;28;20039;-64
2022/04/30 06:00:04;;;;;;;1.15;0.90;;;;;;;19.11;28.93;101446.25;5105240;28;20568;-64
2022/04/30 06:02:29;;;;;;;3.97;1.02;;;;;;;19.12;28.52;101459.34;5105024;28;20058;-65
2022/04/30 06:04:57;;;;;;;1.25;0.73;;;;;;;19.13;28.39;101454.97;5103613;28;20054;-65
2022/04/30 06:07:23;;;;;;;1.75;0.82;;;;;;;19.25;28.23;101459.03;5104935;28;20031;-64
2022/04/30 06:09:48;;;;;;;3.45;1.10;;;;;;;19.48;27.74;101463.63;5104754;28;20024;-64
2022/04/30 06:12:13;;;;;;;2.70;0.90;;;;;;;19.54;27.63;101460.81;5103566;28;20026;-64
2022/04/30 06:14:39;;;;;;;5.05;1.00;;;;;;;19.99;27.57;101461.25;5104590;28;20461;-65
2022/04/30 06:17:04;;;;;;;0.90;0.60;;;;;;;20.69;26.44;101458.13;5104799;28;20024;-64
2022/04/30 06:19:29;;;;;;;2.17;0.70;;;;;;;21.13;25.19;101459.31;5102918;28;20065;-64
2022/04/30 06:21:55;;;;;;;1.63;0.73;;;;;;;21.34;25.25;101456.78;5104735;28;20032;-64
2022/04/30 06:24:20;;;;;;;1.17;0.63;;;;;;;21.79;25.24;101453.31;5104563;28;20030;-65
2022/04/30 06:26:45;;;;;;;1.38;0.82;;;;;;;22.32;24.49;101463.59;5104511;28;20105;-65
2022/04/30 06:29:15;;;;;;;1.23;0.68;;;;;;;22.60;23.86;101461.59;5104423;28;20079;-65
2022/04/30 06:31:40;;;;;;;0.90;0.65;;;;;;;22.85;23.48;101452.59;5104841;28;20164;-63
2022/04/30 06:34:05;;;;;;;0.65;0.50;;;;;;;23.13;22.61;101440.78;5104394;28;20027;-64
2022/04/30 06:36:31;;;;;;;1.42;0.55;;;;;;;22.92;22.75;101450.53;5104484;28;20023;-65
2022/04/30 06:38:56;;;;;;;2.28;0.80;;;;;;;22.69;22.28;101440.03;5104075;28;20047;-64
2022/04/30 06:41:22;;;;;;;1.38;0.63;;;;;;;22.39;22.92;101448.31;5104204;28;20027;-66
2022/04/30 06:43:49;;;;;;;4.97;1.00;;;;;;;22.06;22.75;101454.09;5102717;28;20024;-64
2022/04/30 06:46:15;;;;;;;4.00;0.85;;;;;;;21.76;23.34;101452.53;5104273;28;20101;-65
2022/04/30 06:48:40;;;;;;;2.55;0.70;;;;;;;21.32;23.27;101448.91;5103414;28;20048;-66
2022/04/30 06:51:06;;;;;;;1.42;0.60;;;;;;;20.91;24.04;101441.56;5104244;28;20321;-65
2022/04/30 06:59:09;;;;;;;1.92;1.10;;;;;;;20.48;23.94;101444.75;5104103;28;20031;-63
2022/04/30 07:04:07;;;;;;;1.42;0.88;;;;;;;19.91;24.03;101439.53;5103807;28;20043;-64
2022/04/30 07:06:33;;;;;;;3.95;0.80;;;;;;;20.15;24.13;101445.84;5104033;28;20027;-64
2022/04/30 07:08:59;;;;;;;1.33;0.63;;;;;;;20.06;23.95;101448.78;5103814;28;20034;-65
2022/04/30 07:11:25;;;;;;;1.02;0.60;;;;;;;19.67;23.72;101426.22;5102534;28;20027;-65
2022/04/30 07:13:51;;;;;;;1.33;0.88;;;;;;;19.46;23.96;101440.91;5103850;28;20076;-65
2022/04/30 07:16:20;;;;;;;3.20;0.60;;;;;;;19.17;23.62;101440.84;5102748;28;20030;-65
2022/04/30 07:18:45;;;;;;;2.65;0.60;;;;;;;18.80;24.38;101445.31;5103033;28;20023;-64
2022/04/30 07:21:10;;;;;;;0.98;0.52;;;;;;;18.47;24.86;101448.75;5103795;28;20024;-66
2022/04/30 07:23:36;;;;;;;3.38;0.90;;;;;;;18.60;24.70;101445.78;5103632;28;20052;-65
2022/04/30 07:26:01;;;;;;;2.47;0.77;;;;;;;18.74;24.32;101442.84;5103762;28;20023;-65
2022/04/30 07:28:30;;;;;;;0.82;0.60;;;;;;;18.29;23.60;101437.78;5101978;28;20024;-63
2022/04/30 07:30:55;;;;;;;2.20;1.30;;;;;;;17.94;24.00;101437.69;5103650;28;20027;-66
2022/04/30 07:33:21;;;;;;;1.55;0.82;;;;;;;17.52;24.42;101435.13;5103080;28;20044;-65
2022/04/30 07:35:48;;;;;;;0.88;0.60;;;;;;;17.33;24.40;101441.59;5101663;28;20152;-64
2022/04/30 07:38:13;;;;;;;2.60;0.63;;;;;;;17.49;24.33;101441.31;5103297;28;20043;-64
2022/04/30 07:40:39;;;;;;;1.15;0.60;;;;;;;17.56;23.55;101448.16;5103291;28;20020;-65
2022/04/30 07:43:04;;;;;;;2.25;0.70;;;;;;;17.26;23.52;101445.25;5103294;28;20027;-64
2022/04/30 07:45:30;;;;;;;3.50;0.77;;;;;;;17.07;23.66;101440.34;5103178;28;20028;-63
2022/04/30 07:47:55;;;;;;;1.35;0.60;;;;;;;17.13;24.16;101456.88;5102711;28;20207;-65
2022/04/30 07:50:22;;;;;;;1.58;0.82;;;;;;;16.81;23.73;101444.31;5102877;28;20516;-65
2022/04/30 07:52:48;;;;;;;1.20;0.55;;;;;;;16.27;23.62;101458.31;5103342;28;20388;-64
2022/04/30 07:55:13;;;;;;;1.27;0.63;;;;;;;15.67;24.74;101455.63;5103208;28;20336;-66
2022/04/30 07:57:39;;;;;;;1.65;0.70;;;;;;;15.67;24.84;101448.63;5103175;28;20051;-64
2022/04/30 08:00:05;;;;;;;2.95;0.73;;;;;;;15.81;24.95;101450.22;5103174;28;20456;-65
2022/04/30 08:02:30;;;;;;;1.00;0.70;;;;;;;15.99;24.60;101446.47;5101515;28;20032;-64
2022/04/30 08:04:55;;;;;;;0.82;0.63;;;;;;;16.03;24.32;101444.69;5102673;28;20552;-64
2022/04/30 08:07:21;;;;;;;2.15;0.52;;;;;;;16.20;24.71;101444.44;5103022;28;20052;-64
2022/04/30 08:09:46;;;;;;;2.10;0.60;;;;;;;16.30;24.42;101437.28;5102848;28;20024;-64
2022/04/30 08:12:13;;;;;;;1.30;0.50;;;;;;;16.57;23.99;101450.84;5102661;28;20157;-63
2022/04/30 08:14:39;;;;;;;0.50;0.50;;;;;;;16.67;23.36;101451.53;5102835;28;20020;-64
2022/04/30 08:17:05;;;;;;;2.70;0.68;;;;;;;16.71;23.75;101451.47;5102653;28;20103;-63
2022/04/30 08:19:30;;;;;;;1.02;0.73;;;;;;;17.10;23.89;101428.94;5102535;28;20016;-65
2022/04/30 08:21:56;;;;;;;2.67;0.65;;;;;;;17.73;23.26;101441.69;5101514;28;20043;-66
2022/04/30 08:24:21;;;;;;;3.13;1.30;;;;;;;17.90;22.88;101440.41;5102858;28;20474;-71
2022/04/30 08:26:46;;;;;;;1.00;0.52;;;;;;;18.12;22.62;101440.81;5101593;28;20020;-73
2022/04/30 08:29:12;;;;;;;1.48;0.75;;;;;;;18.38;22.30;101452.47;5101032;28;20024;-66
2022/04/30 08:31:37;;;;;;;3.20;0.68;;;;;;;18.47;22.02;101434.75;5101620;28;20111;-68
2022/04/30 08:34:03;;;;;;;1.45;0.60;;;;;;;18.38;22.28;101435.81;5101253;28;20024;-68
2022/04/30 08:36:28;;;;;;;4.25;0.73;;;;;;;18.41;22.30;101434.00;5102879;28;20097;-68
2022/04/30 08:38:53;;;;;;;1.73;0.60;;;;;;;18.68;22.26;101436.81;5102527;28;20016;-68
2022/04/30 08:41:19;;;;;;;2.03;0.70;;;;;;;19.03;21.60;101428.88;5102824;28;20035;-67
2022/04/30 08:43:48;;;;;;;2.78;0.63;;;;;;;18.67;21.94;101436.88;5102755;28;20040;-66
2022/04/30 08:46:14;;;;;;;2.63;0.82;;;;;;;18.82;21.71;101427.69;5102648;28;20016;-65
2022/04/30 08:48:43;;;;;;;1.02;0.52;;;;;;;19.12;21.75;101419.88;5105191;28;20074;-67
2022/04/30 08:51:08;;;;;;;1.20;0.52;;;;;;;19.60;21.18;101425.53;5105165;28;20038;-67
2022/04/30 08:53:34;;;;;;;1.65;0.65;;;;;;;20.23;21.29;101421.84;5106517;28;20084;-67
2022/04/30 08:55:59;;;;;;;1.20;0.50;;;;;;;20.88;20.91;101417.94;5106680;28;20035;-66
2022/04/30 08:58:24;;;;;;;1.27;0.43;;;;;;;21.52;19.60;101413.81;5106478;28;20023;-67
2022/04/30 09:00:50;;;;;;;0.73;0.50;;;;;;;21.58;19.16;101412.69;5105100;28;20048;-65
2022/04/30 09:03:18;;;;;;;1.60;0.63;;;;;;;21.11;19.21;101421.53;5105827;28;20024;-65
2022/04/30 09:05:43;;;;;;;2.65;0.70;;;;;;;20.85;19.75;101407.44;5106521;28;20027;-65
2022/04/30 09:08:09;;;;;;;1.80;0.70;;;;;;;21.12;19.37;101408.25;5106170;28;20020;-66
2022/04/30 09:10:37;;;;;;;1.05;0.63;;;;;;;21.49;19.31;101403.38;5106467;28;20456;-67
2022/04/30 09:13:07;;;;;;;2.30;0.68;;;;;;;22.05;18.85;101405.63;5104702;28;20024;-67
2022/04/30 09:15:34;;;;;;;2.80;0.50;;;;;;;22.65;18.23;101401.41;5106283;28;20058;-67
2022/04/30 09:18:00;;;;;;;1.45;0.73;;;;;;;22.94;18.17;101401.03;5105852;28;20019;-63
2022/04/30 09:20:26;;;;;;;1.70;0.50;;;;;;;22.89;17.28;101410.03;5104623;28;20023;-64
2022/04/30 09:22:52;;;;;;;3.03;0.70;;;;;;;22.65;17.97;101399.59;5105986;28;20024;-61
2022/04/30 09:25:18;;;;;;;0.73;0.50;;;;;;;23.39;18.20;101391.06;5106319;28;20368;-65
2022/04/30 09:27:50;;;;;;;0.30;0.25;;;;;;;24.43;17.29;101389.59;5104565;28;20081;-65
2022/04/30 09:30:22;;;;;;;1.83;0.40;;;;;;;24.46;16.91;101395.59;5105820;28;20020;-58
2022/04/30 09:33:04;;;;;;;1.48;0.50;;;;;;;24.41;16.93;101397.63;5105932;28;20032;-70
2022/04/30 09:38:18;;;;;;;4.47;1.05;;;;;;;23.53;16.89;101387.78;5105566;28;20030;-67
2022/04/30 09:40:53;;;;;;;0.90;0.40;;;;;;;24.00;16.69;101389.03;5105665;28;20475;-60
2022/04/30 09:43:19;;;;;;;0.93;0.40;;;;;;;24.79;16.24;101382.44;5104129;28;20028;-64
2022/04/30 09:45:44;;;;;;;0.63;0.30;;;;;;;24.78;15.17;101386.03;5105801;28;20032;-61
2022/04/30 09:53:58;;;;;;;2.20;0.45;;;;;;;23.67;16.22;101381.78;5105529;28;20039;-60
2022/04/30 09:56:49;;;;;;;1.65;0.57;;;;;;;24.12;16.51;101374.28;5105733;28;20053;-59
2022/04/30 09:59:15;;;;;;;1.70;0.50;;;;;;;24.77;15.60;101379.88;5105167;28;20024;-73
2022/04/30 10:01:45;;;;;;;1.30;0.47;;;;;;;24.35;15.53;101377.59;5105357;28;20034;-59
2022/04/30 10:04:18;;;;;;;2.38;0.50;;;;;;;23.73;16.31;101375.31;5105281;28;20020;-59
2022/04/30 10:06:46;;;;;;;1.65;0.47;;;;;;;23.15;16.24;101370.03;5105183;28;20020;-61
2022/04/30 10:09:16;;;;;;;1.98;0.50;;;;;;;23.38;16.59;101370.78;5104763;28;20059;-60
2022/04/30 10:12:15;;;;;;;0.93;0.50;;;;;;;24.18;15.54;101359.88;5105326;28;20023;-62
2022/04/30 10:14:56;;;;;;;1.80;0.40;;;;;;;23.58;14.98;101366.34;5105046;28;20483;-67
2022/04/30 10:17:28;;;;;;;1.15;0.60;;;;;;;22.63;15.60;101379.44;5104892;28;20028;-66
2022/04/30 10:19:59;;;;;;;1.23;1.02;;;;;;;21.61;16.24;101359.78;5104558;28;20022;-64
2022/04/30 10:22:25;;;;;;;0.60;0.40;;;;;;;20.54;16.92;101364.56;5103279;28;20016;-64
2022/04/30 10:24:56;;;;;;;3.33;0.70;;;;;;;19.98;17.37;101367.28;5104693;28;20028;-65
2022/04/30 10:27:22;;;;;;;1.65;0.50;;;;;;;19.46;17.54;101364.53;5104696;28;20024;-65
2022/04/30 10:29:55;;;;;;;1.30;0.47;;;;;;;18.80;18.37;101361.97;5104626;28;20026;-65
2022/04/30 10:32:31;;;;;;;1.45;0.50;;;;;;;18.37;19.11;101358.72;5104712;28;20026;-65
2022/04/30 10:34:56;;;;;;;1.08;0.57;;;;;;;18.18;19.11;101367.09;5104214;28;20020;-64
2022/04/30 10:37:41;;;;;;;1.13;0.50;;;;;;;17.69;19.41;101351.59;5104643;28;20156;-64
2022/04/30 10:40:11;;;;;;;2.38;0.50;;;;;;;17.42;19.96;101358.31;5104219;28;20594;-63
2022/04/30 10:42:41;;;;;;;1.08;0.70;;;;;;;17.35;19.65;101349.72;5104355;28;20028;-64
2022/04/30 10:45:09;;;;;;;2.95;0.70;;;;;;;17.14;20.24;101345.81;5104402;28;20101;-64
2022/04/30 10:47:35;;;;;;;1.35;0.75;;;;;;;17.53;20.46;101345.81;5104085;28;20055;-64
2022/04/30 10:50:00;;;;;;;1.67;0.80;;;;;;;17.61;20.40;101343.03;5104151;28;20392;-66
2022/04/30 10:52:29;;;;;;;1.08;0.60;;;;;;;17.71;20.70;101341.91;5104708;28;20039;-64
2022/04/30 10:54:58;;;;;;;1.38;0.57;;;;;;;17.89;20.28;101344.13;5102769;28;20020;-64
2022/04/30 10:57:23;;;;;;;1.95;0.70;;;;;;;17.89;20.47;101347.59;5104249;28;20024;-64
2022/04/30 10:59:59;;;;;;;2.58;0.68;;;;;;;17.94;20.46;101337.84;5104209;28;20031;-63
2022/04/30 11:02:30;;;;;;;1.23;0.60;;;;;;;17.86;20.35;101337.19;5104238;28;20058;-64
2022/04/30 11:04:56;;;;;;;1.60;0.68;;;;;;;17.99;20.42;101335.13;5103703;28;20035;-64
2022/04/30 11:07:21;;;;;;;4.05;0.70;;;;;;;18.03;20.51;101331.53;5104149;28;20054;-64
2022/04/30 11:09:47;;;;;;;0.75;0.50;;;;;;;17.95;20.51;101339.59;5103204;28;20529;-65
2022/04/30 11:12:14;;;;;;;1.55;0.68;;;;;;;18.01;20.61;101330.69;5103879;28;20043;-65
2022/04/30 11:14:42;;;;;;;1.20;0.60;;;;;;;18.07;20.73;101327.91;5104156;28;20016;-65
2022/04/30 11:17:07;;;;;;;1.13;0.50;;;;;;;17.98;20.40;101325.53;5101634;28;20039;-65
2022/04/30 11:19:39;;;;;;;4.20;0.65;;;;;;;17.86;20.67;101326.66;5103636;28;20016;-64
2022/04/30 11:22:08;;;;;;;1.40;0.65;;;;;;;18.12;21.16;101324.31;5104475;28;20016;-65
2022/04/30 11:24:33;;;;;;;1.08;0.40;;;;;;;18.29;20.44;101319.50;5103601;28;20058;-66
2022/04/30 11:27:03;;;;;;;1.80;0.60;;;;;;;18.13;20.13;101315.56;5103659;28;20024;-64
2022/04/30 11:29:30;;;;;;;2.33;0.80;;;;;;;17.75;20.75;101315.59;5103504;28;20054;-64
2022/04/30 11:31:56;;;;;;;1.88;0.70;;;;;;;17.75;21.83;101311.19;5103564;28;20024;-65
2022/04/30 11:34:23;;;;;;;3.63;0.80;;;;;;;17.89;22.62;101299.50;5103124;28;20058;-65
2022/04/30 11:36:56;;;;;;;4.03;0.82;;;;;;;18.05;22.44;101303.44;5103198;28;20111;-64
2022/04/30 11:39:22;;;;;;;2.00;0.82;;;;;;;18.17;22.82;101304.06;5103090;28;20016;-63
2022/04/30 11:41:49;;;;;;;2.30;0.95;;;;;;;18.30;22.81;101296.72;5103056;28;20027;-65
2022/04/30 11:44:16;;;;;;;3.33;0.90;;;;;;;18.40;22.53;101297.34;5103278;28;20476;-65
2022/04/30 11:46:44;;;;;;;1.40;0.57;;;;;;;18.48;22.58;101295.38;5103300;28;20035;-65
2022/04/30 11:49:15;;;;;;;2.72;0.63;;;;;;;18.43;22.53;101292.88;5102878;28;20062;-65
2022/04/30 11:51:42;;;;;;;2.22;0.70;;;;;;;18.35;22.19;101300.09;5103519;28;20020;-65
2022/04/30 11:54:09;;;;;;;1.50;0.60;;;;;;;18.17;22.40;101294.41;5103230;28;20154;-65
2022/04/30 11:56:36;;;;;;;1.05;0.50;;;;;;;18.05;22.32;101297.34;5103529;28;20027;-65
2022/04/30 11:59:01;;;;;;;2.10;0.50;;;;;;;17.91;22.37;101289.78;5103229;28;20027;-65
2022/04/30 12:01:30;;;;;;;1.55;0.98;;;;;;;17.59;21.99;101298.41;5102007;28;20028;-65
2022/04/30 12:04:05;;;;;;;1.40;0.77;;;;;;;17.43;22.16;101297.91;5103120;28;20048;-64
2022/04/30 12:06:32;;;;;;;1.10;0.73;;;;;;;17.38;22.50;101291.06;5103273;28;20020;-64